sensor_id;sensor_type;location;lat;lon;timestamp;P1;durP1;ratioP1;P2;durP2;ratioP2
19329;SDS011;9799;48.214;16.388;2023-05-10T00:01:45;3.90;;;3.50;;
19329;SDS011;9799;48.214;16.388;2023-05-10T00:05:07;6.43;;;3.37;;
19329;SDS011;9799;48.214;16.388;2023-05-10T00:08:28;5.27;;;3.57;;
19329;SDS011;9799;48.214;16.388;2023-05-10T00:11:49;4.17;;;3.47;;
19329;SDS011;9799;48.214;16.388;2023-05-10T00:15:12;3.83;;;2.90;;
19329;SDS011;9799;48.214;16.388;2023-05-10T00:18:33;5.33;;;3.73;;
19329;SDS011;9799;48.214;16.388;2023-05-10T00:21:55;4.83;;;3.40;;
19329;SDS011;9799;48.214;16.388;2023-05-10T00:25:16;6.30;;;3.40;;
19329;SDS011;9799;48.214;16.388;2023-05-10T00:28:37;3.23;;;2.90;;
19329;SDS011;9799;48.214;16.388;2023-05-10T00:32:00;3.67;;;3.20;;
19329;SDS011;9799;48.214;16.388;2023-05-10T00:35:21;5.70;;;3.43;;
19329;SDS011;9799;48.214;16.388;2023-05-10T00:38:42;7.43;;;3.70;;
19329;SDS011;9799;48.214;16.388;2023-05-10T00:42:03;3.67;;;3.37;;
19329;SDS011;9799;48.214;16.388;2023-05-10T00:45:24;4.60;;;3.50;;
19329;SDS011;9799;48.214;16.388;2023-05-10T00:48:47;3.33;;;3.00;;
19329;SDS011;9799;48.214;16.388;2023-05-10T00:52:09;5.63;;;3.67;;
19329;SDS011;9799;48.214;16.388;2023-05-10T00:55:30;4.93;;;3.73;;
19329;SDS011;9799;48.214;16.388;2023-05-10T00:58:51;5.50;;;3.40;;
19329;SDS011;9799;48.214;16.388;2023-05-10T01:02:13;7.93;;;3.37;;
19329;SDS011;9799;48.214;16.388;2023-05-10T01:05:35;4.20;;;3.57;;
19329;SDS011;9799;48.214;16.388;2023-05-10T01:08:57;4.07;;;3.33;;
19329;SDS011;9799;48.214;16.388;2023-05-10T01:12:18;4.83;;;3.60;;
19329;SDS011;9799;48.214;16.388;2023-05-10T01:15:39;5.30;;;3.77;;
19329;SDS011;9799;48.214;16.388;2023-05-10T01:19:01;4.67;;;3.30;;
19329;SDS011;9799;48.214;16.388;2023-05-10T01:22:30;4.50;;;3.90;;
19329;SDS011;9799;48.214;16.388;2023-05-10T01:26:10;3.90;;;3.30;;
19329;SDS011;9799;48.214;16.388;2023-05-10T01:33:29;7.53;;;4.00;;
19329;SDS011;9799;48.214;16.388;2023-05-10T01:36:57;4.93;;;3.63;;
19329;SDS011;9799;48.214;16.388;2023-05-10T01:40:26;4.20;;;3.80;;
19329;SDS011;9799;48.214;16.388;2023-05-10T01:43:54;5.07;;;4.13;;
19329;SDS011;9799;48.214;16.388;2023-05-10T01:47:23;6.03;;;3.97;;
19329;SDS011;9799;48.214;16.388;2023-05-10T01:50:53;6.87;;;3.90;;
19329;SDS011;9799;48.214;16.388;2023-05-10T01:54:15;4.33;;;3.70;;
19329;SDS011;9799;48.214;16.388;2023-05-10T01:57:40;5.27;;;3.97;;
19329;SDS011;9799;48.214;16.388;2023-05-10T02:01:04;5.83;;;4.00;;
19329;SDS011;9799;48.214;16.388;2023-05-10T02:04:27;5.97;;;4.10;;
19329;SDS011;9799;48.214;16.388;2023-05-10T02:07:50;4.57;;;3.90;;
19329;SDS011;9799;48.214;16.388;2023-05-10T02:11:13;5.30;;;3.57;;
19329;SDS011;9799;48.214;16.388;2023-05-10T02:14:35;6.27;;;3.73;;
19329;SDS011;9799;48.214;16.388;2023-05-10T02:17:57;6.90;;;4.10;;
19329;SDS011;9799;48.214;16.388;2023-05-10T02:21:20;6.27;;;3.83;;
19329;SDS011;9799;48.214;16.388;2023-05-10T02:24:44;5.20;;;4.30;;
19329;SDS011;9799;48.214;16.388;2023-05-10T02:28:07;4.67;;;4.10;;
19329;SDS011;9799;48.214;16.388;2023-05-10T02:31:32;5.27;;;4.63;;
19329;SDS011;9799;48.214;16.388;2023-05-10T02:34:54;4.47;;;3.70;;
19329;SDS011;9799;48.214;16.388;2023-05-10T02:38:16;4.37;;;3.97;;
19329;SDS011;9799;48.214;16.388;2023-05-10T02:41:42;5.77;;;4.47;;
19329;SDS011;9799;48.214;16.388;2023-05-10T02:45:07;4.83;;;4.40;;
19329;SDS011;9799;48.214;16.388;2023-05-10T02:48:31;5.17;;;4.43;;
19329;SDS011;9799;48.214;16.388;2023-05-10T02:51:55;5.77;;;3.90;;
19329;SDS011;9799;48.214;16.388;2023-05-10T02:55:21;7.13;;;4.70;;
19329;SDS011;9799;48.214;16.388;2023-05-10T02:58:53;5.67;;;4.83;;
19329;SDS011;9799;48.214;16.388;2023-05-10T03:02:15;4.73;;;4.23;;
19329;SDS011;9799;48.214;16.388;2023-05-10T03:05:36;6.20;;;4.60;;
19329;SDS011;9799;48.214;16.388;2023-05-10T03:08:57;5.97;;;4.17;;
19329;SDS011;9799;48.214;16.388;2023-05-10T03:12:20;7.60;;;4.53;;
19329;SDS011;9799;48.214;16.388;2023-05-10T03:15:55;4.93;;;4.07;;
19329;SDS011;9799;48.214;16.388;2023-05-10T03:19:20;7.17;;;4.37;;
19329;SDS011;9799;48.214;16.388;2023-05-10T03:22:47;5.50;;;4.50;;
19329;SDS011;9799;48.214;16.388;2023-05-10T03:26:12;8.87;;;4.40;;
19329;SDS011;9799;48.214;16.388;2023-05-10T03:29:37;5.97;;;4.47;;
19329;SDS011;9799;48.214;16.388;2023-05-10T03:33:05;4.77;;;4.23;;
19329;SDS011;9799;48.214;16.388;2023-05-10T03:36:26;5.27;;;3.97;;
19329;SDS011;9799;48.214;16.388;2023-05-10T03:39:47;10.33;;;4.57;;
19329;SDS011;9799;48.214;16.388;2023-05-10T03:43:09;5.00;;;4.50;;
19329;SDS011;9799;48.214;16.388;2023-05-10T03:46:30;5.63;;;4.93;;
19329;SDS011;9799;48.214;16.388;2023-05-10T03:49:53;8.10;;;4.30;;
19329;SDS011;9799;48.214;16.388;2023-05-10T03:53:14;6.47;;;5.30;;
19329;SDS011;9799;48.214;16.388;2023-05-10T03:56:35;5.80;;;4.30;;
19329;SDS011;9799;48.214;16.388;2023-05-10T03:59:56;5.40;;;4.60;;
19329;SDS011;9799;48.214;16.388;2023-05-10T04:03:17;5.13;;;4.63;;
19329;SDS011;9799;48.214;16.388;2023-05-10T04:06:40;6.73;;;4.33;;
19329;SDS011;9799;48.214;16.388;2023-05-10T04:10:02;5.17;;;4.60;;
19329;SDS011;9799;48.214;16.388;2023-05-10T04:13:23;5.93;;;4.13;;
19329;SDS011;9799;48.214;16.388;2023-05-10T04:16:44;9.40;;;4.30;;
19329;SDS011;9799;48.214;16.388;2023-05-10T04:20:06;4.93;;;4.53;;
19329;SDS011;9799;48.214;16.388;2023-05-10T04:23:29;5.67;;;4.90;;
19329;SDS011;9799;48.214;16.388;2023-05-10T04:26:50;8.93;;;4.67;;
19329;SDS011;9799;48.214;16.388;2023-05-10T04:30:11;7.07;;;5.10;;
19329;SDS011;9799;48.214;16.388;2023-05-10T04:33:33;5.43;;;4.60;;
19329;SDS011;9799;48.214;16.388;2023-05-10T04:36:54;5.70;;;5.10;;
19329;SDS011;9799;48.214;16.388;2023-05-10T04:40:17;5.00;;;4.60;;
19329;SDS011;9799;48.214;16.388;2023-05-10T04:43:39;5.43;;;3.87;;
19329;SDS011;9799;48.214;16.388;2023-05-10T04:47:00;5.67;;;5.17;;
19329;SDS011;9799;48.214;16.388;2023-05-10T04:50:22;6.37;;;5.30;;
19329;SDS011;9799;48.214;16.388;2023-05-10T04:53:43;5.87;;;4.83;;
19329;SDS011;9799;48.214;16.388;2023-05-10T04:57:05;9.37;;;5.00;;
19329;SDS011;9799;48.214;16.388;2023-05-10T05:00:27;7.50;;;5.03;;
19329;SDS011;9799;48.214;16.388;2023-05-10T05:03:48;5.57;;;5.07;;
19329;SDS011;9799;48.214;16.388;2023-05-10T05:07:09;6.10;;;5.00;;
19329;SDS011;9799;48.214;16.388;2023-05-10T05:10:31;8.10;;;5.20;;
19329;SDS011;9799;48.214;16.388;2023-05-10T05:13:53;9.03;;;5.30;;
19329;SDS011;9799;48.214;16.388;2023-05-10T05:17:14;7.73;;;5.57;;
19329;SDS011;9799;48.214;16.388;2023-05-10T05:20:35;6.00;;;5.37;;
19329;SDS011;9799;48.214;16.388;2023-05-10T05:23:57;8.90;;;5.30;;
19329;SDS011;9799;48.214;16.388;2023-05-10T05:27:18;8.73;;;6.70;;
19329;SDS011;9799;48.214;16.388;2023-05-10T05:30:41;7.47;;;5.07;;
19329;SDS011;9799;48.214;16.388;2023-05-10T05:34:02;6.90;;;5.57;;
19329;SDS011;9799;48.214;16.388;2023-05-10T05:37:24;8.10;;;5.93;;
19329;SDS011;9799;48.214;16.388;2023-05-10T05:40:45;7.63;;;5.63;;
19329;SDS011;9799;48.214;16.388;2023-05-10T05:44:07;8.00;;;5.73;;
19329;SDS011;9799;48.214;16.388;2023-05-10T05:47:29;7.37;;;6.10;;
19329;SDS011;9799;48.214;16.388;2023-05-10T05:50:53;8.93;;;5.37;;
19329;SDS011;9799;48.214;16.388;2023-05-10T05:54:15;7.10;;;5.53;;
19329;SDS011;9799;48.214;16.388;2023-05-10T05:57:37;7.53;;;5.03;;
19329;SDS011;9799;48.214;16.388;2023-05-10T06:00:58;9.63;;;5.90;;
19329;SDS011;9799;48.214;16.388;2023-05-10T06:04:20;9.83;;;5.10;;
19329;SDS011;9799;48.214;16.388;2023-05-10T06:07:41;8.37;;;5.97;;
19329;SDS011;9799;48.214;16.388;2023-05-10T06:11:03;5.43;;;4.83;;
19329;SDS011;9799;48.214;16.388;2023-05-10T06:14:24;9.87;;;5.30;;
19329;SDS011;9799;48.214;16.388;2023-05-10T06:17:45;6.07;;;5.47;;
19329;SDS011;9799;48.214;16.388;2023-05-10T06:21:09;7.30;;;5.27;;
19329;SDS011;9799;48.214;16.388;2023-05-10T06:24:31;10.07;;;6.30;;
19329;SDS011;9799;48.214;16.388;2023-05-10T06:27:52;7.53;;;5.30;;
19329;SDS011;9799;48.214;16.388;2023-05-10T06:31:16;19.47;;;7.20;;
19329;SDS011;9799;48.214;16.388;2023-05-10T06:34:37;10.47;;;5.50;;
19329;SDS011;9799;48.214;16.388;2023-05-10T06:38:00;5.97;;;5.37;;
19329;SDS011;9799;48.214;16.388;2023-05-10T06:41:21;8.33;;;5.57;;
19329;SDS011;9799;48.214;16.388;2023-05-10T06:44:43;5.70;;;5.10;;
19329;SDS011;9799;48.214;16.388;2023-05-10T06:48:04;6.83;;;5.83;;
19329;SDS011;9799;48.214;16.388;2023-05-10T06:51:26;7.97;;;5.43;;
19329;SDS011;9799;48.214;16.388;2023-05-10T06:54:48;5.57;;;4.80;;
19329;SDS011;9799;48.214;16.388;2023-05-10T06:58:09;5.53;;;4.73;;
19329;SDS011;9799;48.214;16.388;2023-05-10T07:01:30;10.97;;;5.20;;
19329;SDS011;9799;48.214;16.388;2023-05-10T07:04:52;6.13;;;5.17;;
19329;SDS011;9799;48.214;16.388;2023-05-10T07:08:13;8.57;;;5.57;;
19329;SDS011;9799;48.214;16.388;2023-05-10T07:11:35;6.80;;;5.47;;
19329;SDS011;9799;48.214;16.388;2023-05-10T07:14:57;13.07;;;6.20;;
19329;SDS011;9799;48.214;16.388;2023-05-10T07:18:18;8.83;;;5.57;;
19329;SDS011;9799;48.214;16.388;2023-05-10T07:21:39;11.73;;;6.03;;
19329;SDS011;9799;48.214;16.388;2023-05-10T07:25:02;7.40;;;5.87;;
19329;SDS011;9799;48.214;16.388;2023-05-10T07:28:25;8.30;;;5.80;;
19329;SDS011;9799;48.214;16.388;2023-05-10T07:31:47;9.23;;;6.00;;
19329;SDS011;9799;48.214;16.388;2023-05-10T07:35:08;10.43;;;6.63;;
19329;SDS011;9799;48.214;16.388;2023-05-10T07:38:29;7.03;;;6.30;;
19329;SDS011;9799;48.214;16.388;2023-05-10T07:41:50;8.43;;;5.67;;
19329;SDS011;9799;48.214;16.388;2023-05-10T07:45:13;9.93;;;6.63;;
19329;SDS011;9799;48.214;16.388;2023-05-10T07:48:34;6.97;;;5.53;;
19329;SDS011;9799;48.214;16.388;2023-05-10T07:51:56;9.30;;;5.80;;
19329;SDS011;9799;48.214;16.388;2023-05-10T07:55:18;11.47;;;6.10;;
19329;SDS011;9799;48.214;16.388;2023-05-10T07:58:45;7.97;;;6.60;;
19329;SDS011;9799;48.214;16.388;2023-05-10T08:02:08;6.97;;;6.27;;
19329;SDS011;9799;48.214;16.388;2023-05-10T08:05:29;9.60;;;7.07;;
19329;SDS011;9799;48.214;16.388;2023-05-10T08:08:50;9.80;;;6.43;;
19329;SDS011;9799;48.214;16.388;2023-05-10T08:12:13;7.83;;;6.00;;
19329;SDS011;9799;48.214;16.388;2023-05-10T08:15:34;10.83;;;6.27;;
19329;SDS011;9799;48.214;16.388;2023-05-10T08:18:57;8.47;;;6.23;;
19329;SDS011;9799;48.214;16.388;2023-05-10T08:22:18;7.63;;;5.80;;
19329;SDS011;9799;48.214;16.388;2023-05-10T08:25:39;6.83;;;5.43;;
19329;SDS011;9799;48.214;16.388;2023-05-10T08:29:00;6.27;;;5.50;;
19329;SDS011;9799;48.214;16.388;2023-05-10T08:32:22;6.33;;;5.03;;
19329;SDS011;9799;48.214;16.388;2023-05-10T08:35:44;10.23;;;5.20;;
19329;SDS011;9799;48.214;16.388;2023-05-10T08:39:05;6.27;;;5.67;;
19329;SDS011;9799;48.214;16.388;2023-05-10T08:42:27;5.90;;;5.30;;
19329;SDS011;9799;48.214;16.388;2023-05-10T08:45:51;7.13;;;4.90;;
19329;SDS011;9799;48.214;16.388;2023-05-10T08:49:15;11.10;;;5.00;;
19329;SDS011;9799;48.214;16.388;2023-05-10T08:52:39;6.57;;;4.93;;
19329;SDS011;9799;48.214;16.388;2023-05-10T08:56:01;5.33;;;4.40;;
19329;SDS011;9799;48.214;16.388;2023-05-10T08:59:23;5.83;;;4.67;;
19329;SDS011;9799;48.214;16.388;2023-05-10T09:02:45;4.53;;;4.10;;
19329;SDS011;9799;48.214;16.388;2023-05-10T09:06:06;4.10;;;3.70;;
19329;SDS011;9799;48.214;16.388;2023-05-10T09:09:29;5.37;;;3.27;;
19329;SDS011;9799;48.214;16.388;2023-05-10T09:12:50;3.83;;;3.47;;
19329;SDS011;9799;48.214;16.388;2023-05-10T09:16:12;3.13;;;2.83;;
19329;SDS011;9799;48.214;16.388;2023-05-10T09:19:33;3.53;;;3.00;;
19329;SDS011;9799;48.214;16.388;2023-05-10T09:22:54;5.23;;;3.30;;
19329;SDS011;9799;48.214;16.388;2023-05-10T09:26:17;5.63;;;2.73;;
19329;SDS011;9799;48.214;16.388;2023-05-10T09:29:43;6.27;;;3.13;;
19329;SDS011;9799;48.214;16.388;2023-05-10T09:33:04;3.93;;;2.83;;
19329;SDS011;9799;48.214;16.388;2023-05-10T09:36:25;4.17;;;2.90;;
19329;SDS011;9799;48.214;16.388;2023-05-10T09:39:47;5.53;;;3.07;;
19329;SDS011;9799;48.214;16.388;2023-05-10T09:43:09;2.47;;;2.23;;
19329;SDS011;9799;48.214;16.388;2023-05-10T09:46:33;6.67;;;2.67;;
19329;SDS011;9799;48.214;16.388;2023-05-10T09:49:56;2.63;;;2.30;;
19329;SDS011;9799;48.214;16.388;2023-05-10T09:53:22;2.40;;;2.10;;
19329;SDS011;9799;48.214;16.388;2023-05-10T09:56:43;4.40;;;2.47;;
19329;SDS011;9799;48.214;16.388;2023-05-10T10:00:06;2.70;;;2.10;;
19329;SDS011;9799;48.214;16.388;2023-05-10T10:03:29;3.77;;;1.80;;
19329;SDS011;9799;48.214;16.388;2023-05-10T10:07:03;3.88;;;3.35;;
19329;SDS011;9799;48.214;16.388;2023-05-10T10:10:25;2.40;;;1.90;;
19329;SDS011;9799;48.214;16.388;2023-05-10T10:13:47;3.25;;;2.95;;
19329;SDS011;9799;48.214;16.388;2023-05-10T10:17:10;1.83;;;1.73;;
19329;SDS011;9799;48.214;16.388;2023-05-10T10:20:33;2.17;;;1.98;;
19329;SDS011;9799;48.214;16.388;2023-05-10T10:23:57;4.73;;;2.23;;
19329;SDS011;9799;48.214;16.388;2023-05-10T10:27:20;3.03;;;2.40;;
19329;SDS011;9799;48.214;16.388;2023-05-10T10:30:45;4.63;;;2.13;;
19329;SDS011;9799;48.214;16.388;2023-05-10T10:34:11;1.85;;;1.73;;
19329;SDS011;9799;48.214;16.388;2023-05-10T10:37:45;3.00;;;2.30;;
19329;SDS011;9799;48.214;16.388;2023-05-10T10:41:08;1.98;;;1.88;;
19329;SDS011;9799;48.214;16.388;2023-05-10T10:44:35;3.38;;;2.10;;
19329;SDS011;9799;48.214;16.388;2023-05-10T10:52:12;5.03;;;2.50;;
19329;SDS011;9799;48.214;16.388;2023-05-10T10:55:55;4.28;;;2.53;;
19329;SDS011;9799;48.214;16.388;2023-05-10T10:59:27;2.85;;;2.63;;
19329;SDS011;9799;48.214;16.388;2023-05-10T11:02:48;4.25;;;2.80;;
19329;SDS011;9799;48.214;16.388;2023-05-10T11:06:10;2.85;;;2.55;;
19329;SDS011;9799;48.214;16.388;2023-05-10T11:09:36;5.43;;;4.93;;
19329;SDS011;9799;48.214;16.388;2023-05-10T11:13:00;3.90;;;2.97;;
19329;SDS011;9799;48.214;16.388;2023-05-10T11:16:22;4.65;;;2.78;;
19329;SDS011;9799;48.214;16.388;2023-05-10T11:23:32;2.90;;;2.70;;
19329;SDS011;9799;48.214;16.388;2023-05-10T11:27:09;4.00;;;3.25;;
19329;SDS011;9799;48.214;16.388;2023-05-10T11:30:31;4.95;;;2.97;;
19329;SDS011;9799;48.214;16.388;2023-05-10T11:33:53;3.78;;;2.13;;
19329;SDS011;9799;48.214;16.388;2023-05-10T11:37:15;2.63;;;2.42;;
19329;SDS011;9799;48.214;16.388;2023-05-10T11:40:38;2.75;;;2.50;;
19329;SDS011;9799;48.214;16.388;2023-05-10T11:44:02;3.85;;;2.92;;
19329;SDS011;9799;48.214;16.388;2023-05-10T11:47:23;3.65;;;2.53;;
19329;SDS011;9799;48.214;16.388;2023-05-10T11:50:44;3.50;;;2.20;;
19329;SDS011;9799;48.214;16.388;2023-05-10T11:54:07;2.60;;;2.40;;
19329;SDS011;9799;48.214;16.388;2023-05-10T11:57:29;3.13;;;2.70;;
19329;SDS011;9799;48.214;16.388;2023-05-10T12:00:52;5.18;;;2.72;;
19329;SDS011;9799;48.214;16.388;2023-05-10T12:04:13;6.28;;;3.75;;
19329;SDS011;9799;48.214;16.388;2023-05-10T12:07:34;5.03;;;3.55;;
19329;SDS011;9799;48.214;16.388;2023-05-10T12:11:03;5.82;;;3.22;;
19329;SDS011;9799;48.214;16.388;2023-05-10T12:14:26;3.10;;;2.55;;
19329;SDS011;9799;48.214;16.388;2023-05-10T12:17:49;7.60;;;2.78;;
19329;SDS011;9799;48.214;16.388;2023-05-10T12:21:11;8.27;;;2.50;;
19329;SDS011;9799;48.214;16.388;2023-05-10T12:24:33;11.52;;;3.47;;
19329;SDS011;9799;48.214;16.388;2023-05-10T12:27:56;6.32;;;2.72;;
19329;SDS011;9799;48.214;16.388;2023-05-10T12:31:21;3.65;;;2.10;;
19329;SDS011;9799;48.214;16.388;2023-05-10T12:34:43;2.70;;;2.42;;
19329;SDS011;9799;48.214;16.388;2023-05-10T12:41:45;2.05;;;1.85;;
19329;SDS011;9799;48.214;16.388;2023-05-10T12:45:06;3.05;;;2.75;;
19329;SDS011;9799;48.214;16.388;2023-05-10T12:48:29;3.63;;;2.90;;
19329;SDS011;9799;48.214;16.388;2023-05-10T12:51:52;6.13;;;3.08;;
19329;SDS011;9799;48.214;16.388;2023-05-10T12:55:13;3.22;;;2.67;;
19329;SDS011;9799;48.214;16.388;2023-05-10T12:58:34;3.78;;;3.33;;
19329;SDS011;9799;48.214;16.388;2023-05-10T13:01:56;8.43;;;3.45;;
19329;SDS011;9799;48.214;16.388;2023-05-10T13:05:17;2.75;;;2.47;;
19329;SDS011;9799;48.214;16.388;2023-05-10T13:08:40;3.75;;;3.33;;
19329;SDS011;9799;48.214;16.388;2023-05-10T13:12:01;3.10;;;2.90;;
19329;SDS011;9799;48.214;16.388;2023-05-10T13:15:23;3.50;;;3.20;;
19329;SDS011;9799;48.214;16.388;2023-05-10T13:18:44;7.32;;;3.78;;
19329;SDS011;9799;48.214;16.388;2023-05-10T13:22:05;4.38;;;3.50;;
19329;SDS011;9799;48.214;16.388;2023-05-10T13:25:28;11.32;;;3.78;;
19329;SDS011;9799;48.214;16.388;2023-05-10T13:28:49;4.43;;;3.85;;
19329;SDS011;9799;48.214;16.388;2023-05-10T13:32:10;4.05;;;3.63;;
19329;SDS011;9799;48.214;16.388;2023-05-10T13:35:32;4.57;;;3.55;;
19329;SDS011;9799;48.214;16.388;2023-05-10T13:38:53;3.80;;;3.40;;
19329;SDS011;9799;48.214;16.388;2023-05-10T13:42:15;3.78;;;3.38;;
19329;SDS011;9799;48.214;16.388;2023-05-10T13:45:37;4.13;;;3.30;;
19329;SDS011;9799;48.214;16.388;2023-05-10T13:48:58;3.05;;;2.85;;
19329;SDS011;9799;48.214;16.388;2023-05-10T13:52:19;4.00;;;3.08;;
19329;SDS011;9799;48.214;16.388;2023-05-10T13:55:41;3.53;;;3.22;;
19329;SDS011;9799;48.214;16.388;2023-05-10T13:59:03;3.55;;;3.25;;
19329;SDS011;9799;48.214;16.388;2023-05-10T14:02:24;3.53;;;3.22;;
19329;SDS011;9799;48.214;16.388;2023-05-10T14:05:46;3.28;;;2.97;;
19329;SDS011;9799;48.214;16.388;2023-05-10T14:09:07;3.88;;;3.47;;
19329;SDS011;9799;48.214;16.388;2023-05-10T14:12:29;5.68;;;3.15;;
19329;SDS011;9799;48.214;16.388;2023-05-10T14:15:52;3.03;;;2.83;;
19329;SDS011;9799;48.214;16.388;2023-05-10T14:19:13;3.65;;;3.30;;
19329;SDS011;9799;48.214;16.388;2023-05-10T14:22:35;6.15;;;3.30;;
19329;SDS011;9799;48.214;16.388;2023-05-10T14:25:56;3.83;;;3.20;;
19329;SDS011;9799;48.214;16.388;2023-05-10T14:29:17;6.65;;;3.50;;
19329;SDS011;9799;48.214;16.388;2023-05-10T14:32:39;3.83;;;2.65;;
19329;SDS011;9799;48.214;16.388;2023-05-10T14:36:01;2.63;;;2.42;;
19329;SDS011;9799;48.214;16.388;2023-05-10T14:39:22;5.95;;;4.10;;
19329;SDS011;9799;48.214;16.388;2023-05-10T14:42:44;5.85;;;2.58;;
19329;SDS011;9799;48.214;16.388;2023-05-10T14:46:05;3.10;;;2.90;;
19329;SDS011;9799;48.214;16.388;2023-05-10T14:49:28;3.20;;;2.90;;
19329;SDS011;9799;48.214;16.388;2023-05-10T14:52:49;3.33;;;2.90;;
19329;SDS011;9799;48.214;16.388;2023-05-10T14:56:10;2.45;;;2.25;;
19329;SDS011;9799;48.214;16.388;2023-05-10T14:59:31;4.22;;;3.60;;
19329;SDS011;9799;48.214;16.388;2023-05-10T15:02:53;2.67;;;2.42;;
19329;SDS011;9799;48.214;16.388;2023-05-10T15:06:15;2.97;;;2.60;;
19329;SDS011;9799;48.214;16.388;2023-05-10T15:09:36;4.40;;;2.58;;
19329;SDS011;9799;48.214;16.388;2023-05-10T15:12:58;2.33;;;2.13;;
19329;SDS011;9799;48.214;16.388;2023-05-10T15:16:19;4.85;;;2.42;;
19329;SDS011;9799;48.214;16.388;2023-05-10T15:19:40;5.18;;;2.50;;
19329;SDS011;9799;48.214;16.388;2023-05-10T15:23:03;3.08;;;2.38;;
19329;SDS011;9799;48.214;16.388;2023-05-10T15:26:24;2.45;;;2.22;;
19329;SDS011;9799;48.214;16.388;2023-05-10T15:29:46;3.25;;;1.95;;
19329;SDS011;9799;48.214;16.388;2023-05-10T15:33:07;2.00;;;1.90;;
19329;SDS011;9799;48.214;16.388;2023-05-10T15:36:28;3.28;;;2.40;;
19329;SDS011;9799;48.214;16.388;2023-05-10T15:39:51;2.75;;;2.10;;
19329;SDS011;9799;48.214;16.388;2023-05-10T15:43:13;2.38;;;2.17;;
19329;SDS011;9799;48.214;16.388;2023-05-10T15:46:34;1.92;;;1.83;;
19329;SDS011;9799;48.214;16.388;2023-05-10T15:49:57;3.17;;;2.20;;
19329;SDS011;9799;48.214;16.388;2023-05-10T15:53:18;2.97;;;2.78;;
19329;SDS011;9799;48.214;16.388;2023-05-10T15:56:40;2.75;;;2.47;;
19329;SDS011;9799;48.214;16.388;2023-05-10T16:00:02;3.08;;;2.78;;
19329;SDS011;9799;48.214;16.388;2023-05-10T16:03:24;2.75;;;2.47;;
19329;SDS011;9799;48.214;16.388;2023-05-10T16:06:45;4.93;;;2.70;;
19329;SDS011;9799;48.214;16.388;2023-05-10T16:10:07;2.45;;;2.25;;
19329;SDS011;9799;48.214;16.388;2023-05-10T16:13:30;4.40;;;2.30;;
19329;SDS011;9799;48.214;16.388;2023-05-10T16:16:52;4.43;;;2.85;;
19329;SDS011;9799;48.214;16.388;2023-05-10T16:20:13;3.00;;;2.70;;
19329;SDS011;9799;48.214;16.388;2023-05-10T16:23:34;3.13;;;2.33;;
19329;SDS011;9799;48.214;16.388;2023-05-10T16:26:55;3.05;;;2.40;;
19329;SDS011;9799;48.214;16.388;2023-05-10T16:30:18;3.88;;;2.33;;
19329;SDS011;9799;48.214;16.388;2023-05-10T16:33:39;5.55;;;2.30;;
19329;SDS011;9799;48.214;16.388;2023-05-10T16:37:00;2.97;;;2.78;;
19329;SDS011;9799;48.214;16.388;2023-05-10T16:40:22;2.60;;;2.30;;
19329;SDS011;9799;48.214;16.388;2023-05-10T16:43:43;4.22;;;2.70;;
19329;SDS011;9799;48.214;16.388;2023-05-10T16:47:08;3.03;;;2.72;;
19329;SDS011;9799;48.214;16.388;2023-05-10T16:50:29;2.75;;;2.42;;
19329;SDS011;9799;48.214;16.388;2023-05-10T16:53:50;5.45;;;2.40;;
19329;SDS011;9799;48.214;16.388;2023-05-10T16:57:12;2.78;;;2.45;;
19329;SDS011;9799;48.214;16.388;2023-05-10T17:00:33;5.65;;;2.50;;
19329;SDS011;9799;48.214;16.388;2023-05-10T17:03:56;4.40;;;2.63;;
19329;SDS011;9799;48.214;16.388;2023-05-10T17:07:17;4.05;;;2.30;;
19329;SDS011;9799;48.214;16.388;2023-05-10T17:10:38;5.53;;;2.90;;
19329;SDS011;9799;48.214;16.388;2023-05-10T17:14:00;4.68;;;2.70;;
19329;SDS011;9799;48.214;16.388;2023-05-10T17:17:21;5.03;;;2.28;;
19329;SDS011;9799;48.214;16.388;2023-05-10T17:20:44;5.07;;;3.60;;
19329;SDS011;9799;48.214;16.388;2023-05-10T17:24:06;9.85;;;3.08;;
19329;SDS011;9799;48.214;16.388;2023-05-10T17:27:27;3.17;;;2.70;;
19329;SDS011;9799;48.214;16.388;2023-05-10T17:30:53;2.92;;;2.67;;
19329;SDS011;9799;48.214;16.388;2023-05-10T17:34:15;2.70;;;2.50;;
19329;SDS011;9799;48.214;16.388;2023-05-10T17:37:38;3.63;;;3.15;;
19329;SDS011;9799;48.214;16.388;2023-05-10T17:40:59;4.57;;;3.38;;
19329;SDS011;9799;48.214;16.388;2023-05-10T17:44:21;3.17;;;2.88;;
19329;SDS011;9799;48.214;16.388;2023-05-10T17:47:43;5.53;;;2.72;;
19329;SDS011;9799;48.214;16.388;2023-05-10T17:51:04;5.55;;;3.13;;
19329;SDS011;9799;48.214;16.388;2023-05-10T17:54:27;3.33;;;2.80;;
19329;SDS011;9799;48.214;16.388;2023-05-10T17:57:48;2.45;;;2.25;;
19329;SDS011;9799;48.214;16.388;2023-05-10T18:01:10;2.60;;;2.40;;
19329;SDS011;9799;48.214;16.388;2023-05-10T18:04:31;5.32;;;2.45;;
19329;SDS011;9799;48.214;16.388;2023-05-10T18:07:52;3.03;;;2.83;;
19329;SDS011;9799;48.214;16.388;2023-05-10T18:11:15;2.95;;;2.38;;
19329;SDS011;9799;48.214;16.388;2023-05-10T18:14:36;3.03;;;2.50;;
19329;SDS011;9799;48.214;16.388;2023-05-10T18:17:57;4.53;;;2.30;;
19329;SDS011;9799;48.214;16.388;2023-05-10T18:21:21;4.63;;;2.55;;
19329;SDS011;9799;48.214;16.388;2023-05-10T18:24:42;4.07;;;3.67;;
19329;SDS011;9799;48.214;16.388;2023-05-10T18:28:04;4.05;;;3.00;;
19329;SDS011;9799;48.214;16.388;2023-05-10T18:31:26;4.10;;;3.80;;
19329;SDS011;9799;48.214;16.388;2023-05-10T18:34:48;5.75;;;3.28;;
19329;SDS011;9799;48.214;16.388;2023-05-10T18:38:09;4.15;;;2.97;;
19329;SDS011;9799;48.214;16.388;2023-05-10T18:41:31;3.55;;;3.13;;
19329;SDS011;9799;48.214;16.388;2023-05-10T18:44:53;4.47;;;2.70;;
19329;SDS011;9799;48.214;16.388;2023-05-10T18:48:14;5.38;;;3.25;;
19329;SDS011;9799;48.214;16.388;2023-05-10T18:51:36;3.75;;;3.40;;
19329;SDS011;9799;48.214;16.388;2023-05-10T18:54:57;4.10;;;3.70;;
19329;SDS011;9799;48.214;16.388;2023-05-10T18:58:19;3.57;;;3.27;;
19329;SDS011;9799;48.214;16.388;2023-05-10T19:01:42;3.65;;;3.10;;
19329;SDS011;9799;48.214;16.388;2023-05-10T19:05:04;6.17;;;3.30;;
19329;SDS011;9799;48.214;16.388;2023-05-10T19:08:26;5.70;;;2.97;;
19329;SDS011;9799;48.214;16.388;2023-05-10T19:11:48;8.57;;;3.47;;
19329;SDS011;9799;48.214;16.388;2023-05-10T19:15:12;5.05;;;3.40;;
19329;SDS011;9799;48.214;16.388;2023-05-10T19:18:34;3.85;;;3.45;;
19329;SDS011;9799;48.214;16.388;2023-05-10T19:21:57;3.22;;;2.92;;
19329;SDS011;9799;48.214;16.388;2023-05-10T19:25:19;3.50;;;3.00;;
19329;SDS011;9799;48.214;16.388;2023-05-10T19:28:42;5.93;;;3.35;;
19329;SDS011;9799;48.214;16.388;2023-05-10T19:32:04;2.78;;;2.58;;
19329;SDS011;9799;48.214;16.388;2023-05-10T19:35:27;3.15;;;2.60;;
19329;SDS011;9799;48.214;16.388;2023-05-10T19:38:48;3.28;;;2.85;;
19329;SDS011;9799;48.214;16.388;2023-05-10T19:42:10;2.90;;;2.70;;
19329;SDS011;9799;48.214;16.388;2023-05-10T19:45:31;2.65;;;2.45;;
19329;SDS011;9799;48.214;16.388;2023-05-10T19:48:53;4.88;;;2.92;;
19329;SDS011;9799;48.214;16.388;2023-05-10T19:52:15;3.05;;;2.75;;
19329;SDS011;9799;48.214;16.388;2023-05-10T19:55:36;5.47;;;2.88;;
19329;SDS011;9799;48.214;16.388;2023-05-10T19:58:58;5.65;;;2.75;;
19329;SDS011;9799;48.214;16.388;2023-05-10T20:02:21;3.03;;;2.72;;
19329;SDS011;9799;48.214;16.388;2023-05-10T20:05:42;2.70;;;2.50;;
19329;SDS011;9799;48.214;16.388;2023-05-10T20:09:06;6.17;;;3.10;;
19329;SDS011;9799;48.214;16.388;2023-05-10T20:12:28;4.20;;;3.30;;
19329;SDS011;9799;48.214;16.388;2023-05-10T20:15:53;7.43;;;2.80;;
19329;SDS011;9799;48.214;16.388;2023-05-10T20:19:15;3.00;;;2.67;;
19329;SDS011;9799;48.214;16.388;2023-05-10T20:22:37;4.00;;;2.60;;
19329;SDS011;9799;48.214;16.388;2023-05-10T20:26:00;3.78;;;3.10;;
19329;SDS011;9799;48.214;16.388;2023-05-10T20:29:22;3.50;;;3.20;;
19329;SDS011;9799;48.214;16.388;2023-05-10T20:32:43;3.40;;;3.10;;
19329;SDS011;9799;48.214;16.388;2023-05-10T20:36:04;3.25;;;2.58;;